Time;durP1;ratioP1;P1;durP2;ratioP2;P2;SDS_P1;SDS_P2;PMS_P1;PMS_P2;Temp;Humidity;BMP_temperature;BMP_pressure;BME280_temperature;BME280_humidity;BME280_pressure;Samples;Min_cycle;Max_cycle;Signal;HPM_P1;HPM_P2
2021/03/26 00:00:40;;;;;;;23.85;17.55;;;9.90;99.90;;;;;;2078642;28;20113;-75
2021/03/26 00:01:44;;;;;;;24.15;18.40;;;9.80;99.90;;;;;;2075781;28;20116;-75
2021/03/26 00:02:46;;;;;;;23.98;18.17;;;9.80;99.90;;;;;;2072893;28;20441;-75
2021/03/26 00:03:49;;;;;;;24.00;18.95;;;9.80;99.90;;;;;;2074188;28;20116;-75
2021/03/26 00:04:50;;;;;;;23.17;18.08;;;9.80;99.90;;;;;;2075788;28;20413;-75
2021/03/26 00:05:56;;;;;;;27.73;19.13;;;9.80;99.90;;;;;;2078653;28;20033;-76
2021/03/26 00:06:57;;;;;;;25.38;18.25;;;9.80;99.90;;;;;;2075509;28;20116;-75
2021/03/26 00:07:57;;;;;;;23.25;18.42;;;9.80;99.90;;;;;;2079425;28;20293;-75
2021/03/26 00:08:59;;;;;;;25.27;18.80;;;9.80;99.90;;;;;;2086690;28;20539;-75
2021/03/26 00:10:00;;;;;;;23.75;18.10;;;9.80;99.90;;;;;;2093696;28;20109;-75
2021/03/26 00:11:02;;;;;;;24.08;18.58;;;9.80;99.90;;;;;;2086320;28;20450;-75
2021/03/26 00:12:16;;;;;;;25.02;19.27;;;9.80;99.90;;;;;;2081647;28;20025;-75
2021/03/26 00:13:16;;;;;;;26.10;19.98;;;9.80;99.90;;;;;;2079353;28;20073;-75
2021/03/26 00:14:18;;;;;;;25.48;18.95;;;9.80;99.90;;;;;;2084269;28;20029;-76
2021/03/26 00:15:19;;;;;;;24.25;18.92;;;9.80;99.90;;;;;;2079362;28;20164;-75
2021/03/26 00:16:20;;;;;;;26.70;19.95;;;9.80;99.90;;;;;;2077822;28;20497;-75
2021/03/26 00:17:21;;;;;;;26.05;19.83;;;9.80;99.90;;;;;;2069945;28;20120;-75
2021/03/26 00:18:22;;;;;;;23.33;18.92;;;9.70;99.90;;;;;;2078392;28;20441;-75
2021/03/26 00:19:23;;;;;;;25.77;18.52;;;9.70;99.90;;;;;;2078603;28;20026;-74
2021/03/26 00:20:24;;;;;;;23.83;18.70;;;9.80;99.90;;;;;;2085801;28;20148;-74
2021/03/26 00:21:25;;;;;;;27.30;19.40;;;9.70;99.90;;;;;;2078661;28;20496;-75
2021/03/26 00:22:26;;;;;;;22.88;18.55;;;9.70;99.90;;;;;;2078575;28;20026;-75
2021/03/26 00:23:27;;;;;;;23.35;18.80;;;9.70;99.90;;;;;;2074463;28;20025;-75
2021/03/26 00:24:27;;;;;;;26.58;19.30;;;9.70;99.90;;;;;;2082608;28;20040;-75
2021/03/26 00:25:28;;;;;;;22.20;18.40;;;9.70;99.90;;;;;;2086655;28;20037;-74
2021/03/26 00:26:29;;;;;;;23.77;19.45;;;9.70;99.90;;;;;;2078793;28;20021;-75
2021/03/26 00:27:32;;;;;;;25.02;19.02;;;9.70;99.90;;;;;;2077111;28;20068;-75
2021/03/26 00:28:33;;;;;;;22.85;18.50;;;9.70;99.90;;;;;;2081682;28;20021;-75
2021/03/26 00:29:34;;;;;;;24.67;19.83;;;9.70;99.90;;;;;;2080328;28;20504;-75
2021/03/26 00:30:35;;;;;;;24.92;19.88;;;9.70;99.90;;;;;;2078293;28;20025;-75
2021/03/26 00:31:36;;;;;;;31.50;20.13;;;9.70;99.90;;;;;;2071982;28;20456;-75
2021/03/26 00:32:37;;;;;;;24.45;19.10;;;9.70;99.90;;;;;;2076469;28;20029;-77
2021/03/26 00:33:41;;;;;;;24.15;20.13;;;9.60;99.90;;;;;;2074818;28;20033;-77
2021/03/26 00:34:42;;;;;;;29.63;20.60;;;9.70;99.90;;;;;;2083166;28;20033;-75
2021/03/26 00:35:43;;;;;;;27.77;19.95;;;9.60;99.90;;;;;;2082228;28;20108;-75
2021/03/26 00:36:43;;;;;;;25.00;18.88;;;9.60;99.90;;;;;;2078143;28;20056;-75
2021/03/26 00:37:44;;;;;;;28.08;20.02;;;9.60;99.90;;;;;;2078443;28;20026;-75
2021/03/26 00:38:46;;;;;;;25.15;19.60;;;9.60;99.90;;;;;;2077890;28;20021;-76
2021/03/26 00:39:47;;;;;;;26.60;20.02;;;9.60;99.90;;;;;;2075093;28;20037;-76
2021/03/26 00:40:48;;;;;;;25.20;19.95;;;9.60;99.90;;;;;;2073466;28;20535;-76
2021/03/26 00:41:49;;;;;;;26.77;19.35;;;9.60;99.90;;;;;;2080488;28;20033;-77
2021/03/26 00:42:50;;;;;;;27.92;20.13;;;9.60;99.90;;;;;;2078410;28;20045;-75
2021/03/26 00:43:51;;;;;;;26.25;20.73;;;9.60;99.90;;;;;;2083994;28;20047;-75
2021/03/26 00:44:51;;;;;;;27.90;20.58;;;9.60;99.90;;;;;;2089171;28;20434;-75
2021/03/26 00:45:52;;;;;;;24.33;19.00;;;9.60;99.90;;;;;;2081523;28;20428;-75
2021/03/26 00:46:53;;;;;;;25.17;19.73;;;9.60;99.90;;;;;;2074194;28;20036;-75
2021/03/26 00:47:54;;;;;;;25.33;19.52;;;9.60;99.90;;;;;;2070572;28;20022;-75
2021/03/26 00:48:55;;;;;;;29.25;19.92;;;9.60;99.90;;;;;;2074222;28;20120;-76
2021/03/26 00:49:56;;;;;;;26.48;20.67;;;9.60;99.90;;;;;;2078642;28;20025;-76
2021/03/26 00:51:05;;;;;;;29.73;20.83;;;9.50;99.90;;;;;;2080374;28;20028;-75
2021/03/26 00:52:07;;;;;;;24.15;19.95;;;9.50;99.90;;;;;;2082745;28;20045;-76
2021/03/26 00:53:12;;;;;;;25.67;20.27;;;9.50;99.90;;;;;;2080521;28;20022;-76
2021/03/26 00:54:17;;;;;;;24.98;19.83;;;9.50;99.90;;;;;;2085312;28;20035;-75
2021/03/26 00:55:18;;;;;;;25.98;20.45;;;9.40;99.90;;;;;;2086372;28;20029;-75
2021/03/26 00:56:19;;;;;;;25.05;19.88;;;9.50;99.90;;;;;;2079637;28;20055;-75
2021/03/26 00:57:22;;;;;;;30.52;20.80;;;9.50;99.90;;;;;;2079355;28;20527;-76
2021/03/26 00:58:24;;;;;;;27.88;20.15;;;9.50;99.90;;;;;;2077072;28;20696;-76
2021/03/26 00:59:24;;;;;;;26.55;19.98;;;9.40;99.90;;;;;;2081595;28;20398;-75
2021/03/26 01:00:27;;;;;;;30.60;21.80;;;9.40;99.90;;;;;;2086515;28;20037;-76
2021/03/26 01:01:27;;;;;;;26.98;21.10;;;9.40;99.90;;;;;;2086605;28;20126;-75
2021/03/26 01:02:28;;;;;;;26.17;21.08;;;9.40;99.90;;;;;;2081807;28;20033;-76
2021/03/26 01:03:31;;;;;;;23.90;18.77;;;9.40;99.90;;;;;;2072653;28;20380;-75
2021/03/26 01:04:32;;;;;;;27.52;20.23;;;9.40;99.90;;;;;;2079282;28;20032;-75
2021/03/26 01:05:36;;;;;;;26.10;20.48;;;9.40;99.90;;;;;;2079833;28;20080;-75
2021/03/26 01:06:36;;;;;;;26.10;20.10;;;9.40;99.90;;;;;;2089498;28;20049;-75
2021/03/26 01:07:37;;;;;;;29.70;20.38;;;9.40;99.90;;;;;;2087042;28;20485;-75
2021/03/26 01:08:39;;;;;;;28.40;20.45;;;9.40;99.90;;;;;;2079589;28;20048;-75
2021/03/26 01:09:40;;;;;;;23.85;20.48;;;9.40;99.90;;;;;;2080078;28;20021;-78
2021/03/26 01:10:45;;;;;;;26.42;21.40;;;9.30;99.90;;;;;;2079671;28;20289;-75
2021/03/26 01:11:48;;;;;;;27.70;21.08;;;9.30;99.90;;;;;;2075758;28;20044;-76
2021/03/26 01:12:49;;;;;;;30.67;21.38;;;9.30;99.90;;;;;;2076301;28;20069;-75
2021/03/26 01:13:50;;;;;;;29.50;22.65;;;9.30;99.90;;;;;;2080094;28;20465;-75
2021/03/26 01:14:51;;;;;;;33.47;23.10;;;9.30;99.90;;;;;;2077015;28;20033;-75
2021/03/26 01:15:52;;;;;;;26.00;21.60;;;9.30;99.90;;;;;;2079656;28;20043;-76
2021/03/26 01:16:52;;;;;;;26.92;21.65;;;9.30;99.90;;;;;;2088301;28;20075;-76
2021/03/26 01:17:58;;;;;;;27.85;20.83;;;9.30;99.90;;;;;;2084847;28;20029;-75
2021/03/26 01:18:59;;;;;;;26.42;21.23;;;9.30;99.90;;;;;;2079496;28;20057;-78
2021/03/26 01:20:00;;;;;;;33.58;22.00;;;9.20;99.90;;;;;;2084011;28;20017;-75
2021/03/26 01:21:01;;;;;;;24.90;20.65;;;9.20;99.90;;;;;;2080077;28;20058;-75
2021/03/26 01:22:02;;;;;;;29.20;22.73;;;9.20;99.90;;;;;;2086918;28;20029;-76
2021/03/26 01:23:07;;;;;;;29.25;21.65;;;9.20;99.90;;;;;;2096687;28;20028;-75
2021/03/26 01:24:11;;;;;;;32.25;21.85;;;9.20;99.90;;;;;;2084758;28;20476;-75
2021/03/26 01:25:25;;;;;;;26.50;19.83;;;9.20;99.90;;;;;;2084753;28;20025;-75
2021/03/26 01:26:25;;;;;;;30.55;20.77;;;9.20;99.90;;;;;;2082240;28;20470;-75
2021/03/26 01:27:27;;;;;;;32.17;23.13;;;9.20;99.90;;;;;;2083234;28;20032;-75
2021/03/26 01:28:28;;;;;;;29.92;22.20;;;9.20;99.90;;;;;;2074958;28;20056;-75
2021/03/26 01:29:29;;;;;;;28.25;22.10;;;9.20;99.90;;;;;;2079158;28;20064;-77
2021/03/26 01:30:31;;;;;;;29.30;22.40;;;9.10;99.90;;;;;;2081518;28;20044;-74
2021/03/26 01:31:33;;;;;;;26.58;21.52;;;9.10;99.90;;;;;;2080021;28;20097;-75
2021/03/26 01:32:34;;;;;;;27.98;21.67;;;9.20;99.90;;;;;;2081078;28;20030;-75
2021/03/26 01:33:34;;;;;;;29.17;21.15;;;9.10;99.90;;;;;;2084204;28;20049;-75
2021/03/26 01:34:35;;;;;;;30.40;23.10;;;9.10;99.90;;;;;;2077609;28;20025;-75
2021/03/26 01:35:37;;;;;;;29.58;22.48;;;9.10;99.90;;;;;;2086508;28;20025;-75
2021/03/26 01:36:38;;;;;;;28.40;21.70;;;9.10;99.90;;;;;;2079097;28;20678;-76
2021/03/26 01:37:39;;;;;;;29.67;21.40;;;9.10;99.90;;;;;;2081707;28;20030;-75
2021/03/26 01:38:40;;;;;;;31.35;22.95;;;9.10;99.90;;;;;;2082596;28;20032;-76
2021/03/26 01:39:43;;;;;;;26.58;21.55;;;9.10;99.90;;;;;;2080183;28;20025;-75
2021/03/26 01:40:47;;;;;;;28.90;22.58;;;9.10;99.90;;;;;;2079149;28;20025;-75
2021/03/26 01:41:48;;;;;;;28.63;21.88;;;9.10;99.90;;;;;;2073604;28;20025;-75
2021/03/26 01:42:49;;;;;;;29.60;23.42;;;9.00;99.90;;;;;;2084684;28;20115;-75
2021/03/26 01:43:50;;;;;;;29.27;21.65;;;9.00;99.90;;;;;;2079822;28;20140;-75
2021/03/26 01:44:51;;;;;;;26.30;21.77;;;9.00;99.90;;;;;;2079709;28;20804;-75
2021/03/26 01:45:52;;;;;;;29.75;23.38;;;9.00;99.90;;;;;;2082941;28;20026;-77
2021/03/26 01:46:56;;;;;;;30.10;22.63;;;9.00;99.90;;;;;;2082208;28;20071;-76
2021/03/26 01:47:57;;;;;;;29.70;22.40;;;9.00;99.90;;;;;;2088373;28;20029;-75
2021/03/26 01:49:00;;;;;;;34.22;23.98;;;9.00;99.90;;;;;;2084360;28;20057;-78
2021/03/26 01:50:02;;;;;;;39.67;24.25;;;9.00;99.90;;;;;;2081699;28;20018;-75
2021/03/26 01:51:09;;;;;;;32.25;23.90;;;9.00;99.90;;;;;;2087373;28;20146;-75
2021/03/26 01:52:10;;;;;;;29.75;22.38;;;9.00;99.90;;;;;;2087757;28;20424;-75
2021/03/26 01:53:10;;;;;;;28.92;23.52;;;9.00;99.90;;;;;;2079473;28;20072;-75
2021/03/26 01:54:15;;;;;;;28.15;22.20;;;9.00;99.90;;;;;;2087144;28;20025;-75
2021/03/26 01:55:42;;;;;;;28.70;23.52;;;8.90;99.90;;;;;;2086881;28;20853;-76
2021/03/26 01:56:44;;;;;;;31.40;23.50;;;8.90;99.90;;;;;;2088151;28;20115;-77
2021/03/26 01:57:45;;;;;;;32.30;22.90;;;8.90;99.90;;;;;;2084090;28;20032;-77
2021/03/26 01:58:45;;;;;;;28.08;21.85;;;8.90;99.90;;;;;;2087952;28;20029;-75
2021/03/26 01:59:46;;;;;;;29.35;21.20;;;8.90;99.90;;;;;;2084658;28;20025;-75
2021/03/26 02:00:50;;;;;;;32.00;22.00;;;8.90;99.90;;;;;;2079654;28;20929;-75
2021/03/26 02:02:00;;;;;;;30.02;23.13;;;8.90;99.90;;;;;;2082847;28;20386;-75
2021/03/26 02:03:08;;;;;;;32.60;23.90;;;8.80;99.90;;;;;;2077350;28;20104;-76
2021/03/26 02:04:13;;;;;;;34.33;24.10;;;8.80;99.90;;;;;;2085511;28;20083;-77
2021/03/26 02:05:19;;;;;;;31.17;22.45;;;8.80;99.90;;;;;;2078487;28;20104;-75
2021/03/26 02:06:26;;;;;;;32.22;24.67;;;8.80;99.90;;;;;;2080079;28;20064;-75
2021/03/26 02:07:27;;;;;;;31.45;23.13;;;8.80;99.90;;;;;;2079636;28;20037;-75
2021/03/26 02:08:34;;;;;;;30.38;23.45;;;8.80;99.90;;;;;;2078845;28;20045;-74
2021/03/26 02:09:39;;;;;;;30.17;24.08;;;8.80;99.90;;;;;;2082968;28;20351;-75
2021/03/26 02:10:42;;;;;;;31.83;24.00;;;8.70;99.90;;;;;;2081754;28;20065;-75
2021/03/26 02:11:51;;;;;;;29.15;23.10;;;8.70;99.90;;;;;;2079724;28;20025;-78
2021/03/26 02:12:59;;;;;;;29.75;21.88;;;8.70;99.90;;;;;;2081812;28;20402;-75
2021/03/26 02:14:05;;;;;;;29.55;23.75;;;8.70;99.90;;;;;;2079572;28;20022;-76
2021/03/26 02:15:23;;;;;;;30.40;24.30;;;8.70;99.90;;;;;;2083375;28;20047;-77
2021/03/26 02:16:24;;;;;;;33.75;24.38;;;8.70;99.90;;;;;;2086618;28;20039;-75
2021/03/26 02:17:30;;;;;;;32.58;24.58;;;8.60;99.90;;;;;;2073176;28;20022;-75
2021/03/26 02:18:33;;;;;;;39.28;24.95;;;8.60;99.90;;;;;;2084845;28;20025;-74
2021/03/26 02:19:42;;;;;;;30.75;23.52;;;8.60;99.90;;;;;;2084800;28;20029;-74
2021/03/26 02:20:48;;;;;;;33.72;22.52;;;8.60;99.90;;;;;;2086787;28;20029;-75
2021/03/26 02:21:48;;;;;;;29.60;22.08;;;8.60;99.90;;;;;;2084435;28;20029;-75
2021/03/26 02:22:51;;;;;;;31.75;22.23;;;8.60;99.90;;;;;;2079686;28;20025;-76
2021/03/26 02:23:53;;;;;;;26.00;21.13;;;8.60;99.90;;;;;;2079278;28;20017;-75
2021/03/26 02:24:54;;;;;;;27.13;19.83;;;8.60;99.90;;;;;;2078996;28;20025;-77
2021/03/26 02:25:58;;;;;;;31.50;23.17;;;8.60;99.90;;;;;;2075543;28;20014;-78
2021/03/26 02:27:13;;;;;;;33.95;23.92;;;8.60;99.90;;;;;;2079767;28;20025;-75
2021/03/26 02:28:15;;;;;;;34.78;23.63;;;8.60;99.90;;;;;;2083835;28;20771;-75
2021/03/26 02:29:25;;;;;;;32.00;23.92;;;8.50;99.90;;;;;;2080902;28;20497;-75
2021/03/26 02:30:30;;;;;;;31.63;24.73;;;8.50;99.90;;;;;;2085374;28;20303;-75
2021/03/26 02:31:30;;;;;;;35.05;24.15;;;8.50;99.90;;;;;;2080696;28;20048;-75
2021/03/26 02:32:35;;;;;;;34.40;25.30;;;8.50;99.90;;;;;;2081097;28;20088;-75
2021/03/26 02:33:36;;;;;;;33.90;25.88;;;8.50;99.90;;;;;;2079154;28;20394;-75
2021/03/26 02:34:37;;;;;;;34.05;24.45;;;8.50;99.90;;;;;;2078951;28;20041;-75
2021/03/26 02:35:51;;;;;;;33.60;26.85;;;8.50;99.90;;;;;;2083346;28;20348;-75
2021/03/26 02:36:55;;;;;;;33.83;26.00;;;8.50;99.90;;;;;;2079242;28;20437;-75
2021/03/26 02:38:20;;;;;;;36.08;25.83;;;8.50;99.90;;;;;;2072229;28;20037;-74
2021/03/26 02:39:31;;;;;;;34.03;25.00;;;8.50;99.90;;;;;;2075781;28;20104;-75
2021/03/26 02:40:38;;;;;;;33.33;24.80;;;8.40;99.90;;;;;;2074160;28;20109;-75
2021/03/26 02:41:46;;;;;;;35.08;25.63;;;8.40;99.90;;;;;;2079560;28;20630;-75
2021/03/26 02:42:54;;;;;;;35.28;24.75;;;8.40;99.90;;;;;;2071831;28;20028;-75
2021/03/26 02:44:28;;;;;;;34.15;25.60;;;8.40;99.90;;;;;;2077090;28;20021;-75
2021/03/26 02:45:40;;;;;;;31.85;26.73;;;8.40;99.90;;;;;;2075536;28;20028;-75
2021/03/26 02:47:08;;;;;;;34.42;26.23;;;8.40;99.90;;;;;;2082684;28;20090;-74
2021/03/26 02:48:16;;;;;;;32.55;24.52;;;8.40;99.90;;;;;;2079261;28;20025;-75
2021/03/26 02:49:25;;;;;;;34.45;25.00;;;8.30;99.90;;;;;;2080095;28;20021;-75
2021/03/26 02:51:00;;;;;;;31.95;26.05;;;8.40;99.90;;;;;;2076037;28;20165;-75
2021/03/26 02:52:37;;;;;;;39.20;26.65;;;8.30;99.90;;;;;;2079814;28;20034;-75
2021/03/26 02:53:54;;;;;;;35.75;25.15;;;8.30;99.90;;;;;;2088268;28;20117;-75
2021/03/26 02:55:04;;;;;;;37.20;27.13;;;8.30;99.90;;;;;;2087738;28;20025;-74
2021/03/26 02:56:31;;;;;;;34.70;26.00;;;8.30;99.90;;;;;;2088954;28;20047;-75
2021/03/26 02:57:48;;;;;;;37.75;27.80;;;8.30;99.90;;;;;;2082357;28;20029;-75
2021/03/26 02:59:00;;;;;;;37.88;25.70;;;8.30;99.90;;;;;;2081194;28;20155;-75
2021/03/26 03:00:15;;;;;;;35.47;25.60;;;8.30;99.90;;;;;;2079578;28;20112;-75
2021/03/26 03:01:39;;;;;;;31.73;25.90;;;8.30;99.90;;;;;;2077740;28;20409;-75
2021/03/26 03:02:41;;;;;;;33.58;25.85;;;8.20;99.90;;;;;;2089682;28;20068;-75
2021/03/26 03:03:44;;;;;;;35.35;26.67;;;8.20;99.90;;;;;;2088346;28;20020;-75
2021/03/26 03:05:01;;;;;;;38.08;26.50;;;8.20;99.90;;;;;;2080485;28;20140;-75
2021/03/26 03:06:27;;;;;;;34.60;25.38;;;8.20;99.90;;;;;;2082202;28;20013;-75
2021/03/26 03:07:32;;;;;;;34.75;25.15;;;8.20;99.90;;;;;;2091278;28;20025;-75
2021/03/26 03:08:35;;;;;;;38.97;26.80;;;8.20;99.90;;;;;;2086649;28;20055;-75
2021/03/26 03:09:39;;;;;;;34.28;26.25;;;8.20;99.90;;;;;;2076233;28;20497;-75
2021/03/26 03:10:47;;;;;;;36.97;26.17;;;8.20;99.90;;;;;;2086336;28;20500;-75
2021/03/26 03:11:54;;;;;;;31.92;26.15;;;8.20;99.90;;;;;;2093937;28;20547;-74
2021/03/26 03:13:05;;;;;;;35.75;26.52;;;8.20;99.90;;;;;;2085856;28;20021;-75
2021/03/26 03:14:26;;;;;;;35.33;25.90;;;8.20;99.90;;;;;;2087052;28;20017;-75
2021/03/26 03:15:32;;;;;;;41.47;27.15;;;8.20;99.90;;;;;;2080226;28;20057;-75
2021/03/26 03:16:47;;;;;;;35.42;26.65;;;8.20;99.90;;;;;;2079965;28;20421;-75
2021/03/26 03:18:27;;;;;;;38.53;28.23;;;8.20;99.90;;;;;;2082177;28;20790;-75
2021/03/26 03:19:49;;;;;;;34.95;26.20;;;8.10;99.90;;;;;;2082038;28;20021;-75
2021/03/26 03:21:01;;;;;;;37.30;25.73;;;8.10;99.90;;;;;;2090591;28;20078;-75
2021/03/26 03:22:09;;;;;;;36.70;27.75;;;8.10;99.90;;;;;;2084891;28;20057;-75
2021/03/26 03:23:25;;;;;;;39.67;26.92;;;8.10;99.90;;;;;;2078157;28;20506;-75
2021/03/26 03:24:45;;;;;;;35.65;26.00;;;8.10;99.90;;;;;;2083113;28;20142;-75
2021/03/26 03:25:46;;;;;;;39.22;28.17;;;8.10;99.90;;;;;;2087334;28;20461;-75
2021/03/26 03:27:28;;;;;;;34.90;27.08;;;8.00;99.90;;;;;;2087309;28;20025;-75
2021/03/26 03:29:03;;;;;;;36.33;26.73;;;8.00;99.90;;;;;;2049849;28;20043;-74
2021/03/26 03:30:38;;;;;;;36.28;27.50;;;8.00;99.90;;;;;;2076465;28;20120;-75
2021/03/26 03:31:51;;;;;;;36.35;27.55;;;8.00;99.90;;;;;;2091843;28;20020;-75
2021/03/26 03:33:11;;;;;;;38.53;27.50;;;7.90;99.90;;;;;;2076698;28;20073;-75
2021/03/26 03:34:34;;;;;;;36.90;27.77;;;8.00;99.90;;;;;;2078184;28;20032;-75
2021/03/26 03:35:41;;;;;;;37.17;27.92;;;8.00;99.90;;;;;;2081155;28;20030;-75
2021/03/26 03:36:52;;;;;;;36.53;27.00;;;8.00;99.90;;;;;;2081838;28;20029;-75
2021/03/26 03:37:53;;;;;;;39.30;27.98;;;8.00;99.90;;;;;;2084190;28;20030;-75
2021/03/26 03:39:00;;;;;;;37.22;27.83;;;8.00;99.90;;;;;;2076526;28;20013;-75
2021/03/26 03:40:11;;;;;;;34.30;26.67;;;8.00;99.90;;;;;;2087649;28;20516;-76
2021/03/26 03:41:19;;;;;;;37.13;27.02;;;8.00;99.90;;;;;;2079894;28;20116;-76
2021/03/26 03:42:32;;;;;;;38.22;28.52;;;8.00;99.90;;;;;;2076541;28;20037;-76
2021/03/26 03:43:45;;;;;;;35.35;26.88;;;8.00;99.90;;;;;;2080971;28;20132;-75
2021/03/26 03:45:26;;;;;;;40.33;28.83;;;8.00;99.90;;;;;;2080419;28;20116;-76
2021/03/26 03:46:41;;;;;;;38.47;29.23;;;8.00;99.90;;;;;;2086319;28;20017;-76
2021/03/26 03:47:59;;;;;;;35.38;25.40;;;7.90;99.90;;;;;;2079559;28;20036;-75
2021/03/26 03:49:13;;;;;;;37.22;26.65;;;7.90;99.90;;;;;;2081753;28;20104;-75
2021/03/26 03:50:28;;;;;;;33.72;25.60;;;7.90;99.90;;;;;;2078619;28;20060;-75
2021/03/26 03:51:52;;;;;;;35.92;27.10;;;7.90;99.90;;;;;;2087137;28;20575;-75
2021/03/26 03:53:16;;;;;;;35.38;26.58;;;7.90;99.90;;;;;;2085492;28;20575;-75
2021/03/26 03:54:43;;;;;;;44.45;29.15;;;7.90;99.90;;;;;;2086624;28;20493;-75
2021/03/26 03:55:54;;;;;;;39.95;28.23;;;7.90;99.90;;;;;;2082468;28;20094;-75
2021/03/26 03:57:11;;;;;;;34.13;23.88;;;7.90;99.90;;;;;;2080724;28;20021;-75
2021/03/26 03:58:17;;;;;;;35.35;27.42;;;7.90;99.90;;;;;;2083381;28;20014;-74
2021/03/26 03:59:23;;;;;;;38.65;26.92;;;7.90;99.90;;;;;;2079919;28;20157;-74
2021/03/26 04:00:38;;;;;;;33.47;25.73;;;7.90;99.90;;;;;;2080232;28;20021;-74
2021/03/26 04:01:47;;;;;;;35.35;27.95;;;7.80;99.90;;;;;;2079104;28;20080;-75
2021/03/26 04:02:53;;;;;;;37.25;28.42;;;7.80;99.90;;;;;;2077365;28;20113;-74
2021/03/26 04:04:02;;;;;;;36.30;27.20;;;7.80;99.90;;;;;;2084070;28;20064;-75
2021/03/26 04:05:17;;;;;;;36.35;26.45;;;7.80;99.90;;;;;;2084528;28;20147;-76
2021/03/26 04:06:33;;;;;;;37.88;26.42;;;7.80;99.90;;;;;;2083858;28;20120;-75
2021/03/26 04:07:42;;;;;;;35.72;28.00;;;7.80;99.90;;;;;;2085608;28;20032;-75
2021/03/26 04:08:48;;;;;;;36.75;27.55;;;7.80;99.90;;;;;;2086099;28;20528;-75
2021/03/26 04:09:55;;;;;;;38.47;29.02;;;7.70;99.90;;;;;;2075677;28;20026;-75
2021/03/26 04:11:33;;;;;;;34.45;26.92;;;7.80;99.90;;;;;;2082553;28;20025;-74
2021/03/26 04:12:38;;;;;;;35.50;25.58;;;7.70;99.90;;;;;;2083467;28;20086;-74
2021/03/26 04:13:46;;;;;;;37.72;27.95;;;7.70;99.90;;;;;;2078608;28;20030;-75
2021/03/26 04:14:49;;;;;;;34.08;25.05;;;7.70;99.90;;;;;;2077935;28;20061;-75
2021/03/26 04:15:58;;;;;;;34.28;27.25;;;7.70;99.90;;;;;;2074649;28;20021;-75
2021/03/26 04:17:10;;;;;;;39.03;27.10;;;7.70;99.90;;;;;;2079433;28;20041;-75
2021/03/26 04:18:37;;;;;;;37.75;26.50;;;7.70;99.90;;;;;;2072821;28;20076;-75
2021/03/26 04:19:44;;;;;;;33.47;25.50;;;7.70;99.90;;;;;;2075284;28;20040;-75
2021/03/26 04:21:12;;;;;;;34.70;27.38;;;7.60;99.90;;;;;;2076580;28;20734;-75
2021/03/26 04:22:22;;;;;;;35.88;22.92;;;7.60;99.90;;;;;;2078824;28;20037;-74
2021/03/26 04:23:30;;;;;;;35.58;26.63;;;7.60;99.90;;;;;;2079515;28;20114;-75
2021/03/26 04:24:49;;;;;;;35.42;25.73;;;7.60;99.90;;;;;;2083922;28;20104;-74
2021/03/26 04:26:13;;;;;;;37.85;27.83;;;7.50;99.90;;;;;;2086060;28;20108;-74
2021/03/26 04:27:28;;;;;;;31.83;24.35;;;7.50;99.90;;;;;;2080272;28;20524;-75
2021/03/26 04:28:35;;;;;;;33.67;26.65;;;7.50;99.90;;;;;;2086858;28;20048;-74
2021/03/26 04:30:01;;;;;;;32.88;24.00;;;7.50;99.90;;;;;;2079088;28;20030;-74
2021/03/26 04:31:09;;;;;;;38.42;27.63;;;7.50;99.90;;;;;;2076934;28;20030;-74
2021/03/26 04:32:13;;;;;;;35.80;28.10;;;7.50;99.90;;;;;;2084379;28;20025;-75
2021/03/26 04:33:14;;;;;;;37.30;29.38;;;7.50;99.90;;;;;;2087684;28;20056;-74
2021/03/26 04:34:17;;;;;;;44.05;29.30;;;7.50;99.90;;;;;;2078769;28;20029;-74
2021/03/26 04:35:20;;;;;;;44.08;30.65;;;7.50;99.90;;;;;;2080331;28;20025;-74
2021/03/26 04:36:30;;;;;;;38.13;29.73;;;7.50;99.90;;;;;;2083600;28;20021;-75
2021/03/26 04:37:50;;;;;;;41.05;29.83;;;7.50;99.90;;;;;;2088806;28;20412;-75
2021/03/26 04:39:02;;;;;;;41.83;31.90;;;7.50;99.90;;;;;;2090824;28;20072;-74
2021/03/26 04:40:11;;;;;;;41.78;31.75;;;7.40;99.90;;;;;;2087370;28;20898;-75
2021/03/26 04:41:42;;;;;;;40.25;31.30;;;7.40;99.90;;;;;;2078958;28;20606;-75
2021/03/26 04:43:18;;;;;;;49.42;32.30;;;7.40;99.90;;;;;;2080296;28;20513;-74
2021/03/26 04:44:41;;;;;;;40.35;29.80;;;7.40;99.90;;;;;;2057242;28;20097;-74
2021/03/26 04:45:56;;;;;;;42.75;32.35;;;7.30;99.90;;;;;;2081330;28;20124;-74
2021/03/26 04:47:20;;;;;;;44.58;32.33;;;7.40;99.90;;;;;;2078139;28;20022;-75
2021/03/26 04:48:31;;;;;;;48.00;32.35;;;7.40;99.90;;;;;;2079177;28;20086;-75
2021/03/26 04:49:42;;;;;;;46.08;33.28;;;7.30;99.90;;;;;;2081358;28;20060;-74
2021/03/26 04:51:02;;;;;;;44.75;32.72;;;7.40;99.90;;;;;;2078984;28;20032;-75
2021/03/26 04:52:23;;;;;;;46.13;32.97;;;7.40;99.90;;;;;;2078774;28;20692;-75
2021/03/26 04:53:32;;;;;;;46.88;32.70;;;7.40;99.90;;;;;;2080353;28;20124;-74
2021/03/26 04:54:58;;;;;;;49.38;33.22;;;7.40;99.90;;;;;;2076775;28;20032;-74
2021/03/26 04:56:04;;;;;;;44.67;33.95;;;7.40;99.90;;;;;;2079540;28;20029;-75
2021/03/26 04:57:14;;;;;;;44.55;33.08;;;7.40;99.90;;;;;;2080480;28;20524;-74
2021/03/26 04:58:21;;;;;;;46.42;34.28;;;7.50;99.90;;;;;;2080566;28;20026;-74
2021/03/26 04:59:58;;;;;;;44.28;33.80;;;7.40;99.90;;;;;;2079779;28;20487;-74
2021/03/26 05:01:13;;;;;;;48.58;35.90;;;7.50;99.90;;;;;;2056488;28;20027;-74
2021/03/26 05:02:15;;;;;;;47.47;33.65;;;7.50;99.90;;;;;;2074845;28;20032;-75
2021/03/26 05:03:24;;;;;;;50.75;35.20;;;7.50;99.90;;;;;;2078153;28;20433;-74
2021/03/26 05:04:34;;;;;;;42.75;33.25;;;7.50;99.90;;;;;;2080992;28;20025;-74
2021/03/26 05:05:40;;;;;;;46.13;34.75;;;7.50;99.90;;;;;;2079863;28;20034;-74
2021/03/26 05:06:48;;;;;;;42.58;31.50;;;7.60;99.90;;;;;;2080390;28;20075;-74
2021/03/26 05:07:57;;;;;;;48.55;34.63;;;7.50;99.90;;;;;;2080847;28;20021;-75
2021/03/26 05:09:11;;;;;;;46.10;34.03;;;7.60;99.90;;;;;;2076417;28;20076;-75
2021/03/26 05:10:16;;;;;;;43.63;32.20;;;7.60;99.90;;;;;;2079826;28;20018;-74
2021/03/26 05:11:19;;;;;;;44.30;32.05;;;7.60;99.90;;;;;;2080223;28;20385;-73
2021/03/26 05:12:25;;;;;;;45.30;35.38;;;7.60;99.90;;;;;;2087660;28;20466;-74
2021/03/26 05:13:43;;;;;;;44.03;34.35;;;7.60;99.90;;;;;;2087561;28;20036;-74
2021/03/26 05:14:57;;;;;;;44.70;31.95;;;7.60;99.90;;;;;;2080016;28;20037;-75
2021/03/26 05:16:09;;;;;;;42.88;32.28;;;7.60;99.90;;;;;;2076773;28;20022;-75
2021/03/26 05:17:18;;;;;;;42.38;31.85;;;7.60;99.90;;;;;;2080956;28;20682;-74
2021/03/26 05:18:32;;;;;;;44.90;33.50;;;7.60;99.90;;;;;;2081055;28;20034;-74
2021/03/26 05:19:46;;;;;;;44.15;32.90;;;7.60;99.90;;;;;;2081417;28;20029;-75
2021/03/26 05:21:00;;;;;;;45.88;33.22;;;7.60;99.90;;;;;;2081581;28;20033;-75
2021/03/26 05:22:06;;;;;;;45.05;32.42;;;7.70;99.90;;;;;;2086590;28;20056;-74
2021/03/26 05:23:24;;;;;;;44.30;34.90;;;7.70;99.90;;;;;;2079486;28;20121;-75
2021/03/26 05:24:43;;;;;;;47.53;33.10;;;7.70;99.90;;;;;;2081808;28;20025;-75
2021/03/26 05:25:46;;;;;;;47.42;34.28;;;7.70;99.90;;;;;;2075699;28;20040;-75
2021/03/26 05:26:47;;;;;;;46.67;34.65;;;7.70;99.90;;;;;;2074633;28;20505;-74
2021/03/26 05:27:48;;;;;;;45.88;33.97;;;7.70;99.90;;;;;;2074550;28;20216;-74
2021/03/26 05:28:49;;;;;;;42.22;33.10;;;7.70;99.90;;;;;;2078914;28;20072;-75
2021/03/26 05:29:50;;;;;;;48.85;33.70;;;7.70;99.90;;;;;;2076309;28;20076;-74
2021/03/26 05:30:52;;;;;;;45.78;33.67;;;7.80;99.90;;;;;;2073094;28;20068;-74
2021/03/26 05:32:36;;;;;;;43.35;31.35;;;7.80;99.90;;;;;;2081181;28;20036;-74
2021/03/26 05:33:51;;;;;;;42.55;31.48;;;7.80;99.90;;;;;;2079469;28;20097;-74
2021/03/26 05:35:01;;;;;;;41.47;31.38;;;7.80;99.90;;;;;;2081619;28;20571;-74
2021/03/26 05:36:05;;;;;;;43.00;31.58;;;7.80;99.90;;;;;;2087543;28;20029;-75
2021/03/26 05:37:19;;;;;;;42.67;31.98;;;7.80;99.90;;;;;;2080264;28;20029;-75
2021/03/26 05:38:31;;;;;;;42.13;32.75;;;7.80;99.90;;;;;;2086900;28;20032;-75
2021/03/26 05:39:35;;;;;;;45.50;30.85;;;7.80;99.90;;;;;;2088072;28;20028;-74
2021/03/26 05:40:46;;;;;;;41.63;32.28;;;7.80;99.90;;;;;;2079338;28;20549;-75
2021/03/26 05:42:08;;;;;;;44.22;33.38;;;7.80;99.90;;;;;;2079433;28;20359;-73
2021/03/26 05:43:40;;;;;;;41.47;32.17;;;7.80;99.90;;;;;;2082810;28;20094;-74
2021/03/26 05:45:17;;;;;;;43.08;31.25;;;7.80;99.90;;;;;;2082352;28;20144;-74
2021/03/26 05:46:48;;;;;;;45.28;31.65;;;7.70;99.90;;;;;;2085974;28;20056;-74
2021/03/26 05:48:22;;;;;;;43.65;31.10;;;7.70;99.90;;;;;;2085630;28;20572;-74
2021/03/26 05:49:25;;;;;;;38.38;30.80;;;7.80;99.90;;;;;;2090686;28;20021;-75
2021/03/26 05:50:31;;;;;;;42.95;33.25;;;7.80;99.90;;;;;;2079427;28;20052;-75
2021/03/26 05:51:56;;;;;;;46.17;34.00;;;7.80;99.90;;;;;;2074434;28;20528;-74
2021/03/26 05:53:30;;;;;;;45.53;32.75;;;7.80;99.90;;;;;;2081267;28;20030;-74